sensor_id;sensor_type;location;lat;lon;timestamp;P1;P2;P0
70566;PMS5003;58249;46.792;-71.248;2022-07-29T00:00:47;14.50;14.50;11.00
70566;PMS5003;58249;46.792;-71.248;2022-07-29T00:03:12;12.25;12.25;10.00
70566;PMS5003;58249;46.792;-71.248;2022-07-29T00:05:16;14.00;14.00;10.25
70566;PMS5003;58249;46.792;-71.248;2022-07-29T00:07:21;16.25;14.75;12.50
70566;PMS5003;58249;46.792;-71.248;2022-07-29T00:09:24;13.25;13.25;11.75
70566;PMS5003;58249;46.792;-71.248;2022-07-29T00:11:28;16.25;16.25;12.00
70566;PMS5003;58249;46.792;-71.248;2022-07-29T00:13:31;13.75;13.75;11.50
70566;PMS5003;58249;46.792;-71.248;2022-07-29T00:15:34;15.75;15.75;13.00
70566;PMS5003;58249;46.792;-71.248;2022-07-29T00:17:38;17.50;17.50;13.50
70566;PMS5003;58249;46.792;-71.248;2022-07-29T00:19:43;15.00;15.00;11.25
70566;PMS5003;58249;46.792;-71.248;2022-07-29T00:21:46;17.75;16.00;13.00
70566;PMS5003;58249;46.792;-71.248;2022-07-29T00:23:49;15.25;15.25;11.00
70566;PMS5003;58249;46.792;-71.248;2022-07-29T00:25:54;16.00;16.00;11.50
70566;PMS5003;58249;46.792;-71.248;2022-07-29T00:27:57;12.75;12.75;8.00
70566;PMS5003;58249;46.792;-71.248;2022-07-29T00:30:01;14.25;14.25;12.00
70566;PMS5003;58249;46.792;-71.248;2022-07-29T00:32:05;14.50;14.50;10.25
70566;PMS5003;58249;46.792;-71.248;2022-07-29T00:34:09;16.75;16.75;13.00
70566;PMS5003;58249;46.792;-71.248;2022-07-29T00:36:35;14.25;14.25;10.00
70566;PMS5003;58249;46.792;-71.248;2022-07-29T00:38:37;14.00;13.00;10.00
70566;PMS5003;58249;46.792;-71.248;2022-07-29T00:40:42;11.50;11.50;9.25
70566;PMS5003;58249;46.792;-71.248;2022-07-29T00:42:46;14.75;13.00;10.00
70566;PMS5003;58249;46.792;-71.248;2022-07-29T00:44:50;13.25;13.25;10.50
70566;PMS5003;58249;46.792;-71.248;2022-07-29T00:46:54;11.75;11.75;9.75
70566;PMS5003;58249;46.792;-71.248;2022-07-29T00:48:57;14.50;14.50;10.75
70566;PMS5003;58249;46.792;-71.248;2022-07-29T00:51:01;16.25;15.75;11.25
70566;PMS5003;58249;46.792;-71.248;2022-07-29T00:53:07;17.50;16.25;11.50
70566;PMS5003;58249;46.792;-71.248;2022-07-29T00:55:11;16.00;15.50;12.00
70566;PMS5003;58249;46.792;-71.248;2022-07-29T00:57:15;15.00;15.00;12.00
70566;PMS5003;58249;46.792;-71.248;2022-07-29T00:59:18;12.00;11.75;8.50
70566;PMS5003;58249;46.792;-71.248;2022-07-29T01:01:22;16.25;16.25;12.00
70566;PMS5003;58249;46.792;-71.248;2022-07-29T01:03:25;16.00;16.00;11.75
70566;PMS5003;58249;46.792;-71.248;2022-07-29T01:05:29;15.75;15.50;12.00
70566;PMS5003;58249;46.792;-71.248;2022-07-29T01:07:32;14.25;14.25;11.00
70566;PMS5003;58249;46.792;-71.248;2022-07-29T01:09:39;13.75;13.75;10.75
70566;PMS5003;58249;46.792;-71.248;2022-07-29T01:11:43;14.75;14.75;11.00
70566;PMS5003;58249;46.792;-71.248;2022-07-29T01:13:46;12.75;12.75;10.00
70566;PMS5003;58249;46.792;-71.248;2022-07-29T01:15:52;14.00;14.00;11.50
70566;PMS5003;58249;46.792;-71.248;2022-07-29T01:18:00;12.00;12.00;10.00
70566;PMS5003;58249;46.792;-71.248;2022-07-29T01:20:07;10.00;10.00;8.00
70566;PMS5003;58249;46.792;-71.248;2022-07-29T01:22:19;13.25;13.25;10.25
70566;PMS5003;58249;46.792;-71.248;2022-07-29T01:24:32;12.00;12.00;9.50
70566;PMS5003;58249;46.792;-71.248;2022-07-29T01:26:45;12.00;12.00;9.00
70566;PMS5003;58249;46.792;-71.248;2022-07-29T01:29:03;11.75;11.75;9.00
70566;PMS5003;58249;46.792;-71.248;2022-07-29T01:31:09;15.00;15.00;10.50
70566;PMS5003;58249;46.792;-71.248;2022-07-29T01:33:13;14.00;14.00;10.75
70566;PMS5003;58249;46.792;-71.248;2022-07-29T01:35:33;15.50;14.00;11.50
70566;PMS5003;58249;46.792;-71.248;2022-07-29T01:37:42;13.00;13.00;10.75
70566;PMS5003;58249;46.792;-71.248;2022-07-29T01:39:47;14.00;13.00;10.00
70566;PMS5003;58249;46.792;-71.248;2022-07-29T01:41:54;14.50;14.50;11.00
70566;PMS5003;58249;46.792;-71.248;2022-07-29T01:44:12;10.75;10.00;9.50
70566;PMS5003;58249;46.792;-71.248;2022-07-29T01:46:19;13.75;13.75;10.25
70566;PMS5003;58249;46.792;-71.248;2022-07-29T01:48:29;12.00;12.00;7.25
70566;PMS5003;58249;46.792;-71.248;2022-07-29T01:50:39;13.00;13.00;9.75
70566;PMS5003;58249;46.792;-71.248;2022-07-29T01:52:49;12.00;12.00;9.25
70566;PMS5003;58249;46.792;-71.248;2022-07-29T01:54:58;13.50;13.50;11.00
70566;PMS5003;58249;46.792;-71.248;2022-07-29T01:57:04;16.50;16.50;13.00
70566;PMS5003;58249;46.792;-71.248;2022-07-29T01:59:11;12.00;12.00;10.75
70566;PMS5003;58249;46.792;-71.248;2022-07-29T02:01:15;20.33;20.33;15.00
70566;PMS5003;58249;46.792;-71.248;2022-07-29T02:03:19;21.33;21.33;16.00
70566;PMS5003;58249;46.792;-71.248;2022-07-29T02:05:23;21.33;20.33;15.33
70566;PMS5003;58249;46.792;-71.248;2022-07-29T02:07:30;17.00;17.00;13.33
70566;PMS5003;58249;46.792;-71.248;2022-07-29T02:09:35;17.33;17.33;13.00
70566;PMS5003;58249;46.792;-71.248;2022-07-29T02:11:39;22.25;22.25;16.25
70566;PMS5003;58249;46.792;-71.248;2022-07-29T02:13:43;22.33;21.33;15.33
70566;PMS5003;58249;46.792;-71.248;2022-07-29T02:15:49;21.00;21.00;16.00
70566;PMS5003;58249;46.792;-71.248;2022-07-29T02:17:55;12.00;12.00;11.00
70566;PMS5003;58249;46.792;-71.248;2022-07-29T02:20:02;16.00;14.67;11.00
70566;PMS5003;58249;46.792;-71.248;2022-07-29T02:22:06;20.67;20.67;16.00
70566;PMS5003;58249;46.792;-71.248;2022-07-29T02:24:10;18.50;18.50;14.50
70566;PMS5003;58249;46.792;-71.248;2022-07-29T02:26:14;18.00;18.00;14.33
70566;PMS5003;58249;46.792;-71.248;2022-07-29T02:28:18;20.00;19.33;15.00
70566;PMS5003;58249;46.792;-71.248;2022-07-29T02:30:22;21.33;21.33;16.00
70566;PMS5003;58249;46.792;-71.248;2022-07-29T02:32:27;19.00;19.00;13.33
70566;PMS5003;58249;46.792;-71.248;2022-07-29T02:34:32;19.00;18.33;14.33
70566;PMS5003;58249;46.792;-71.248;2022-07-29T02:36:36;24.33;23.67;17.00
70566;PMS5003;58249;46.792;-71.248;2022-07-29T02:38:39;20.67;20.33;14.67
70566;PMS5003;58249;46.792;-71.248;2022-07-29T02:40:53;16.00;16.00;12.67
70566;PMS5003;58249;46.792;-71.248;2022-07-29T02:42:58;19.33;18.33;12.67
70566;PMS5003;58249;46.792;-71.248;2022-07-29T02:45:03;25.67;24.67;17.33
70566;PMS5003;58249;46.792;-71.248;2022-07-29T02:47:09;20.00;19.67;14.33
70566;PMS5003;58249;46.792;-71.248;2022-07-29T02:49:18;19.33;19.33;15.33
70566;PMS5003;58249;46.792;-71.248;2022-07-29T02:51:27;19.75;19.75;15.00
70566;PMS5003;58249;46.792;-71.248;2022-07-29T02:53:36;22.00;22.00;16.75
70566;PMS5003;58249;46.792;-71.248;2022-07-29T02:55:43;21.67;21.67;14.33
70566;PMS5003;58249;46.792;-71.248;2022-07-29T02:57:49;21.00;20.00;14.33
70566;PMS5003;58249;46.792;-71.248;2022-07-29T02:59:57;17.67;17.67;12.00
70566;PMS5003;58249;46.792;-71.248;2022-07-29T03:02:03;22.00;22.00;15.00
70566;PMS5003;58249;46.792;-71.248;2022-07-29T03:04:08;19.33;19.33;15.00
70566;PMS5003;58249;46.792;-71.248;2022-07-29T03:06:13;19.67;19.67;14.67
70566;PMS5003;58249;46.792;-71.248;2022-07-29T03:08:18;18.67;18.67;14.00
70566;PMS5003;58249;46.792;-71.248;2022-07-29T03:10:22;21.00;18.33;13.00
70566;PMS5003;58249;46.792;-71.248;2022-07-29T03:12:26;20.50;18.00;12.25
70566;PMS5003;58249;46.792;-71.248;2022-07-29T03:14:31;17.50;17.50;12.25
70566;PMS5003;58249;46.792;-71.248;2022-07-29T03:16:35;12.67;12.67;8.67
70566;PMS5003;58249;46.792;-71.248;2022-07-29T03:18:38;18.00;17.00;12.33
70566;PMS5003;58249;46.792;-71.248;2022-07-29T03:20:42;14.00;14.00;10.67
70566;PMS5003;58249;46.792;-71.248;2022-07-29T03:22:47;14.00;14.00;11.50
70566;PMS5003;58249;46.792;-71.248;2022-07-29T03:24:50;14.75;14.00;11.75
70566;PMS5003;58249;46.792;-71.248;2022-07-29T03:26:54;16.25;16.25;11.50
70566;PMS5003;58249;46.792;-71.248;2022-07-29T03:28:58;15.25;15.25;10.75
70566;PMS5003;58249;46.792;-71.248;2022-07-29T03:31:02;15.00;15.00;10.75
70566;PMS5003;58249;46.792;-71.248;2022-07-29T03:33:06;14.50;13.75;10.50
70566;PMS5003;58249;46.792;-71.248;2022-07-29T03:35:09;17.75;15.00;12.25
70566;PMS5003;58249;46.792;-71.248;2022-07-29T03:37:12;13.50;13.50;10.50
70566;PMS5003;58249;46.792;-71.248;2022-07-29T03:39:19;13.00;13.00;9.50
70566;PMS5003;58249;46.792;-71.248;2022-07-29T03:41:24;15.50;14.00;11.25
70566;PMS5003;58249;46.792;-71.248;2022-07-29T03:43:28;14.00;14.00;10.50
70566;PMS5003;58249;46.792;-71.248;2022-07-29T03:45:35;13.25;13.25;10.00
70566;PMS5003;58249;46.792;-71.248;2022-07-29T03:47:42;13.75;13.75;10.00
70566;PMS5003;58249;46.792;-71.248;2022-07-29T03:49:48;12.75;12.75;8.75
70566;PMS5003;58249;46.792;-71.248;2022-07-29T03:51:53;11.50;11.50;7.75
70566;PMS5003;58249;46.792;-71.248;2022-07-29T03:53:56;12.25;12.25;9.50
70566;PMS5003;58249;46.792;-71.248;2022-07-29T03:56:01;11.75;11.75;10.00
70566;PMS5003;58249;46.792;-71.248;2022-07-29T03:58:05;13.25;13.25;9.75
70566;PMS5003;58249;46.792;-71.248;2022-07-29T04:00:10;9.75;9.75;6.50
70566;PMS5003;58249;46.792;-71.248;2022-07-29T04:02:14;13.75;13.75;9.75
70566;PMS5003;58249;46.792;-71.248;2022-07-29T04:04:18;12.00;12.00;8.50
70566;PMS5003;58249;46.792;-71.248;2022-07-29T04:06:21;12.00;12.00;9.75
70566;PMS5003;58249;46.792;-71.248;2022-07-29T04:08:26;12.25;12.25;9.00
70566;PMS5003;58249;46.792;-71.248;2022-07-29T04:10:29;11.50;11.50;8.00
70566;PMS5003;58249;46.792;-71.248;2022-07-29T04:12:34;13.25;13.25;8.00
70566;PMS5003;58249;46.792;-71.248;2022-07-29T04:14:37;11.00;11.00;7.50
70566;PMS5003;58249;46.792;-71.248;2022-07-29T04:16:41;8.00;8.00;7.00
70566;PMS5003;58249;46.792;-71.248;2022-07-29T04:18:44;9.25;9.25;6.75
70566;PMS5003;58249;46.792;-71.248;2022-07-29T04:20:47;8.75;8.75;6.00
70566;PMS5003;58249;46.792;-71.248;2022-07-29T04:22:51;9.50;9.50;6.75
70566;PMS5003;58249;46.792;-71.248;2022-07-29T04:24:55;8.00;8.00;5.25
70566;PMS5003;58249;46.792;-71.248;2022-07-29T04:26:58;7.75;7.75;4.75
70566;PMS5003;58249;46.792;-71.248;2022-07-29T04:29:02;8.75;8.75;6.00
70566;PMS5003;58249;46.792;-71.248;2022-07-29T04:31:06;8.00;8.00;6.00
70566;PMS5003;58249;46.792;-71.248;2022-07-29T04:33:09;8.50;8.50;6.25
70566;PMS5003;58249;46.792;-71.248;2022-07-29T04:35:12;6.00;6.00;4.25
70566;PMS5003;58249;46.792;-71.248;2022-07-29T04:37:16;8.75;8.75;6.25
70566;PMS5003;58249;46.792;-71.248;2022-07-29T04:39:19;10.75;9.75;6.75
70566;PMS5003;58249;46.792;-71.248;2022-07-29T04:41:23;6.50;6.50;4.75
70566;PMS5003;58249;46.792;-71.248;2022-07-29T04:43:26;6.00;6.00;4.00
70566;PMS5003;58249;46.792;-71.248;2022-07-29T04:45:31;3.25;3.25;1.00
70566;PMS5003;58249;46.792;-71.248;2022-07-29T04:47:34;8.50;8.00;7.00
70566;PMS5003;58249;46.792;-71.248;2022-07-29T04:49:38;9.75;9.75;7.00
70566;PMS5003;58249;46.792;-71.248;2022-07-29T04:51:41;7.00;7.00;5.75
70566;PMS5003;58249;46.792;-71.248;2022-07-29T04:53:44;8.25;8.25;6.25
70566;PMS5003;58249;46.792;-71.248;2022-07-29T04:55:49;10.25;8.00;5.50
70566;PMS5003;58249;46.792;-71.248;2022-07-29T04:57:52;9.75;9.75;8.00
70566;PMS5003;58249;46.792;-71.248;2022-07-29T04:59:56;11.00;9.75;7.75
70566;PMS5003;58249;46.792;-71.248;2022-07-29T05:02:01;9.75;9.75;6.75
70566;PMS5003;58249;46.792;-71.248;2022-07-29T05:04:04;8.75;8.75;6.00
70566;PMS5003;58249;46.792;-71.248;2022-07-29T05:06:07;6.00;6.00;5.50
70566;PMS5003;58249;46.792;-71.248;2022-07-29T05:08:11;8.75;8.75;7.00
70566;PMS5003;58249;46.792;-71.248;2022-07-29T05:10:14;9.75;9.75;7.25
70566;PMS5003;58249;46.792;-71.248;2022-07-29T05:12:17;10.25;10.25;6.00
70566;PMS5003;58249;46.792;-71.248;2022-07-29T05:14:20;8.00;8.00;7.25
70566;PMS5003;58249;46.792;-71.248;2022-07-29T05:16:24;9.00;9.00;6.50
70566;PMS5003;58249;46.792;-71.248;2022-07-29T05:18:29;9.75;9.75;7.00
70566;PMS5003;58249;46.792;-71.248;2022-07-29T05:20:32;9.25;9.25;6.25
70566;PMS5003;58249;46.792;-71.248;2022-07-29T05:22:35;10.25;10.25;7.00
70566;PMS5003;58249;46.792;-71.248;2022-07-29T05:24:39;9.25;9.25;7.00
70566;PMS5003;58249;46.792;-71.248;2022-07-29T05:26:42;8.00;8.00;6.00
70566;PMS5003;58249;46.792;-71.248;2022-07-29T05:28:46;7.75;7.75;5.25
70566;PMS5003;58249;46.792;-71.248;2022-07-29T05:30:49;9.00;9.00;5.00
70566;PMS5003;58249;46.792;-71.248;2022-07-29T05:32:52;8.50;7.25;5.00
70566;PMS5003;58249;46.792;-71.248;2022-07-29T05:34:58;8.25;7.75;5.25
70566;PMS5003;58249;46.792;-71.248;2022-07-29T05:37:01;10.25;9.75;7.00
70566;PMS5003;58249;46.792;-71.248;2022-07-29T05:39:05;8.75;8.75;6.75
70566;PMS5003;58249;46.792;-71.248;2022-07-29T05:41:08;8.50;8.50;6.00
70566;PMS5003;58249;46.792;-71.248;2022-07-29T05:43:11;8.00;8.00;6.00
70566;PMS5003;58249;46.792;-71.248;2022-07-29T05:45:14;8.00;8.00;6.00
70566;PMS5003;58249;46.792;-71.248;2022-07-29T05:47:18;8.00;8.00;5.75
70566;PMS5003;58249;46.792;-71.248;2022-07-29T05:49:21;10.00;10.00;7.75
70566;PMS5003;58249;46.792;-71.248;2022-07-29T05:51:26;9.50;9.50;6.25
70566;PMS5003;58249;46.792;-71.248;2022-07-29T05:53:29;8.75;8.75;5.25
70566;PMS5003;58249;46.792;-71.248;2022-07-29T05:55:33;10.50;9.25;6.00
70566;PMS5003;58249;46.792;-71.248;2022-07-29T05:57:36;9.75;9.75;6.00
70566;PMS5003;58249;46.792;-71.248;2022-07-29T05:59:39;8.75;8.75;5.75
70566;PMS5003;58249;46.792;-71.248;2022-07-29T06:01:42;9.00;9.00;7.00
70566;PMS5003;58249;46.792;-71.248;2022-07-29T06:03:46;8.50;7.75;5.00
70566;PMS5003;58249;46.792;-71.248;2022-07-29T06:05:51;11.75;11.75;7.00
70566;PMS5003;58249;46.792;-71.248;2022-07-29T06:07:56;11.25;11.25;8.50
70566;PMS5003;58249;46.792;-71.248;2022-07-29T06:09:59;12.00;10.50;7.50
70566;PMS5003;58249;46.792;-71.248;2022-07-29T06:12:03;11.00;11.00;8.00
70566;PMS5003;58249;46.792;-71.248;2022-07-29T06:14:06;10.75;10.25;8.00
70566;PMS5003;58249;46.792;-71.248;2022-07-29T06:16:10;11.25;11.25;8.00
70566;PMS5003;58249;46.792;-71.248;2022-07-29T06:18:13;10.25;10.25;7.50
70566;PMS5003;58249;46.792;-71.248;2022-07-29T06:20:16;12.00;12.00;9.00
70566;PMS5003;58249;46.792;-71.248;2022-07-29T06:22:20;16.33;16.33;10.67
70566;PMS5003;58249;46.792;-71.248;2022-07-29T06:24:24;13.50;13.50;7.75
70566;PMS5003;58249;46.792;-71.248;2022-07-29T06:26:28;13.00;13.00;9.75
70566;PMS5003;58249;46.792;-71.248;2022-07-29T06:28:31;13.00;13.00;9.50
70566;PMS5003;58249;46.792;-71.248;2022-07-29T06:30:34;14.67;14.00;10.33
70566;PMS5003;58249;46.792;-71.248;2022-07-29T06:32:38;15.00;15.00;10.50
70566;PMS5003;58249;46.792;-71.248;2022-07-29T06:34:41;13.50;13.50;9.50
70566;PMS5003;58249;46.792;-71.248;2022-07-29T06:36:44;12.50;12.50;9.00
70566;PMS5003;58249;46.792;-71.248;2022-07-29T06:38:47;13.00;13.00;9.00
70566;PMS5003;58249;46.792;-71.248;2022-07-29T06:40:52;13.50;13.50;9.25
70566;PMS5003;58249;46.792;-71.248;2022-07-29T06:43:04;12.25;11.75;9.00
70566;PMS5003;58249;46.792;-71.248;2022-07-29T06:45:07;12.00;11.75;7.50
70566;PMS5003;58249;46.792;-71.248;2022-07-29T06:47:11;12.75;12.75;9.25
70566;PMS5003;58249;46.792;-71.248;2022-07-29T06:49:15;12.00;11.50;8.00
70566;PMS5003;58249;46.792;-71.248;2022-07-29T06:51:18;12.50;12.50;7.75
70566;PMS5003;58249;46.792;-71.248;2022-07-29T06:53:22;14.25;12.25;9.00
70566;PMS5003;58249;46.792;-71.248;2022-07-29T06:55:26;11.75;11.75;8.50
70566;PMS5003;58249;46.792;-71.248;2022-07-29T06:57:31;9.75;9.75;8.25
70566;PMS5003;58249;46.792;-71.248;2022-07-29T06:59:35;13.00;13.00;8.00
70566;PMS5003;58249;46.792;-71.248;2022-07-29T07:01:39;13.00;13.00;9.75
70566;PMS5003;58249;46.792;-71.248;2022-07-29T07:03:43;12.25;12.25;7.25
70566;PMS5003;58249;46.792;-71.248;2022-07-29T07:05:46;13.75;13.75;9.75
70566;PMS5003;58249;46.792;-71.248;2022-07-29T07:07:50;10.50;10.50;7.00
70566;PMS5003;58249;46.792;-71.248;2022-07-29T07:09:53;12.00;12.00;9.75
70566;PMS5003;58249;46.792;-71.248;2022-07-29T07:11:56;13.50;13.50;10.75
70566;PMS5003;58249;46.792;-71.248;2022-07-29T07:14:01;13.00;13.00;9.00
70566;PMS5003;58249;46.792;-71.248;2022-07-29T07:16:04;16.00;16.00;10.25
70566;PMS5003;58249;46.792;-71.248;2022-07-29T07:18:08;16.25;16.25;11.50
70566;PMS5003;58249;46.792;-71.248;2022-07-29T07:20:11;16.00;16.00;11.75
70566;PMS5003;58249;46.792;-71.248;2022-07-29T07:22:14;14.75;14.75;9.75
70566;PMS5003;58249;46.792;-71.248;2022-07-29T07:24:18;16.25;15.75;9.50
70566;PMS5003;58249;46.792;-71.248;2022-07-29T07:26:21;14.50;14.50;10.75
70566;PMS5003;58249;46.792;-71.248;2022-07-29T07:28:24;14.25;14.25;10.25
70566;PMS5003;58249;46.792;-71.248;2022-07-29T07:30:29;16.00;15.50;11.00
70566;PMS5003;58249;46.792;-71.248;2022-07-29T07:32:33;15.50;15.25;10.50
70566;PMS5003;58249;46.792;-71.248;2022-07-29T07:34:36;16.25;16.25;10.75
70566;PMS5003;58249;46.792;-71.248;2022-07-29T07:36:39;17.75;17.75;13.00
70566;PMS5003;58249;46.792;-71.248;2022-07-29T07:38:43;14.50;14.50;9.25
70566;PMS5003;58249;46.792;-71.248;2022-07-29T07:40:46;13.75;13.75;9.00
70566;PMS5003;58249;46.792;-71.248;2022-07-29T07:42:49;18.50;16.75;12.25
70566;PMS5003;58249;46.792;-71.248;2022-07-29T07:44:52;16.50;16.00;10.25
70566;PMS5003;58249;46.792;-71.248;2022-07-29T07:46:57;18.25;17.25;12.50
70566;PMS5003;58249;46.792;-71.248;2022-07-29T07:49:01;20.00;18.25;12.00
70566;PMS5003;58249;46.792;-71.248;2022-07-29T07:51:04;19.75;19.75;13.75
70566;PMS5003;58249;46.792;-71.248;2022-07-29T07:53:07;21.67;21.67;16.00
70566;PMS5003;58249;46.792;-71.248;2022-07-29T07:55:11;21.67;21.67;14.67
70566;PMS5003;58249;46.792;-71.248;2022-07-29T07:57:14;18.25;18.25;12.75
70566;PMS5003;58249;46.792;-71.248;2022-07-29T07:59:18;22.75;22.25;13.25
70566;PMS5003;58249;46.792;-71.248;2022-07-29T08:01:21;24.00;23.67;14.00
70566;PMS5003;58249;46.792;-71.248;2022-07-29T08:03:26;21.00;21.00;13.33
70566;PMS5003;58249;46.792;-71.248;2022-07-29T08:05:30;25.67;24.33;15.00
70566;PMS5003;58249;46.792;-71.248;2022-07-29T08:07:34;24.67;23.67;16.00
70566;PMS5003;58249;46.792;-71.248;2022-07-29T08:09:38;24.00;24.00;15.00
70566;PMS5003;58249;46.792;-71.248;2022-07-29T08:11:41;23.00;22.33;14.00
70566;PMS5003;58249;46.792;-71.248;2022-07-29T08:13:44;23.33;23.33;14.33
70566;PMS5003;58249;46.792;-71.248;2022-07-29T08:15:48;24.67;23.00;15.33
70566;PMS5003;58249;46.792;-71.248;2022-07-29T08:17:58;24.33;24.33;17.00
70566;PMS5003;58249;46.792;-71.248;2022-07-29T08:20:03;24.33;23.33;12.33
70566;PMS5003;58249;46.792;-71.248;2022-07-29T08:22:07;24.33;24.33;16.00
70566;PMS5003;58249;46.792;-71.248;2022-07-29T08:24:11;27.67;27.00;16.33
70566;PMS5003;58249;46.792;-71.248;2022-07-29T08:26:31;26.00;25.00;15.33
70566;PMS5003;58249;46.792;-71.248;2022-07-29T08:28:34;25.00;24.33;16.00
70566;PMS5003;58249;46.792;-71.248;2022-07-29T08:30:37;20.67;20.67;14.67
70566;PMS5003;58249;46.792;-71.248;2022-07-29T08:32:41;28.00;28.00;17.67
70566;PMS5003;58249;46.792;-71.248;2022-07-29T08:34:44;27.67;26.00;17.00
70566;PMS5003;58249;46.792;-71.248;2022-07-29T08:36:49;22.33;22.33;14.67
70566;PMS5003;58249;46.792;-71.248;2022-07-29T08:38:52;25.67;25.67;17.33
70566;PMS5003;58249;46.792;-71.248;2022-07-29T08:40:55;26.00;26.00;16.33
70566;PMS5003;58249;46.792;-71.248;2022-07-29T08:42:59;22.33;21.00;11.33
70566;PMS5003;58249;46.792;-71.248;2022-07-29T08:45:08;23.33;23.00;15.33
70566;PMS5003;58249;46.792;-71.248;2022-07-29T08:47:13;25.25;25.00;15.50
70566;PMS5003;58249;46.792;-71.248;2022-07-29T08:49:17;24.00;24.00;15.67
70566;PMS5003;58249;46.792;-71.248;2022-07-29T08:51:20;25.67;25.67;16.00
70566;PMS5003;58249;46.792;-71.248;2022-07-29T08:53:26;21.67;21.33;14.00
70566;PMS5003;58249;46.792;-71.248;2022-07-29T08:55:29;25.67;25.67;14.00
70566;PMS5003;58249;46.792;-71.248;2022-07-29T08:57:33;27.33;26.67;16.00
70566;PMS5003;58249;46.792;-71.248;2022-07-29T08:59:37;25.00;25.00;17.00
70566;PMS5003;58249;46.792;-71.248;2022-07-29T09:01:42;24.33;24.33;16.00
70566;PMS5003;58249;46.792;-71.248;2022-07-29T09:03:46;27.67;26.00;17.67
70566;PMS5003;58249;46.792;-71.248;2022-07-29T09:05:50;26.67;26.67;14.00
70566;PMS5003;58249;46.792;-71.248;2022-07-29T09:07:53;23.00;23.00;14.67
70566;PMS5003;58249;46.792;-71.248;2022-07-29T09:09:58;26.67;26.67;17.00
70566;PMS5003;58249;46.792;-71.248;2022-07-29T09:12:02;27.67;26.67;16.00
70566;PMS5003;58249;46.792;-71.248;2022-07-29T09:14:07;28.00;27.00;18.67
70566;PMS5003;58249;46.792;-71.248;2022-07-29T09:16:10;25.33;24.33;16.67
70566;PMS5003;58249;46.792;-71.248;2022-07-29T09:18:26;26.00;26.00;16.00
70566;PMS5003;58249;46.792;-71.248;2022-07-29T09:20:36;23.67;23.67;15.67
70566;PMS5003;58249;46.792;-71.248;2022-07-29T09:23:07;30.33;28.33;18.00
70566;PMS5003;58249;46.792;-71.248;2022-07-29T09:25:13;24.67;24.67;13.67
70566;PMS5003;58249;46.792;-71.248;2022-07-29T09:27:20;27.00;27.00;17.33
70566;PMS5003;58249;46.792;-71.248;2022-07-29T09:29:26;27.00;25.33;17.00
70566;PMS5003;58249;46.792;-71.248;2022-07-29T09:31:32;26.00;24.67;16.00
70566;PMS5003;58249;46.792;-71.248;2022-07-29T09:33:36;24.67;24.33;14.33
70566;PMS5003;58249;46.792;-71.248;2022-07-29T09:35:41;26.67;26.33;17.33
70566;PMS5003;58249;46.792;-71.248;2022-07-29T09:37:45;22.67;22.67;13.67
70566;PMS5003;58249;46.792;-71.248;2022-07-29T09:39:48;25.67;25.67;17.00
70566;PMS5003;58249;46.792;-71.248;2022-07-29T09:41:53;26.33;26.33;16.67
70566;PMS5003;58249;46.792;-71.248;2022-07-29T09:43:59;21.33;21.33;14.00
70566;PMS5003;58249;46.792;-71.248;2022-07-29T09:46:10;26.67;25.33;17.67
70566;PMS5003;58249;46.792;-71.248;2022-07-29T09:48:14;23.33;23.33;15.00
70566;PMS5003;58249;46.792;-71.248;2022-07-29T09:50:18;20.75;18.00;11.50
70566;PMS5003;58249;46.792;-71.248;2022-07-29T09:52:24;22.33;22.33;14.33
70566;PMS5003;58249;46.792;-71.248;2022-07-29T09:54:28;24.00;24.00;16.00
70566;PMS5003;58249;46.792;-71.248;2022-07-29T09:56:40;26.67;24.33;14.00
70566;PMS5003;58249;46.792;-71.248;2022-07-29T09:58:45;24.00;24.00;14.00
70566;PMS5003;58249;46.792;-71.248;2022-07-29T10:00:49;18.33;17.33;12.67
70566;PMS5003;58249;46.792;-71.248;2022-07-29T10:02:54;22.00;22.00;14.00
70566;PMS5003;58249;46.792;-71.248;2022-07-29T10:05:04;22.67;22.67;14.00
70566;PMS5003;58249;46.792;-71.248;2022-07-29T10:07:08;22.33;20.33;12.67
70566;PMS5003;58249;46.792;-71.248;2022-07-29T10:09:12;19.50;19.50;12.75
70566;PMS5003;58249;46.792;-71.248;2022-07-29T10:11:16;20.00;19.25;15.00
70566;PMS5003;58249;46.792;-71.248;2022-07-29T10:13:20;22.67;22.67;14.00
70566;PMS5003;58249;46.792;-71.248;2022-07-29T10:15:26;16.33;16.33;9.00
70566;PMS5003;58249;46.792;-71.248;2022-07-29T10:17:31;21.33;19.67;13.67
70566;PMS5003;58249;46.792;-71.248;2022-07-29T10:19:36;24.33;23.33;15.00
70566;PMS5003;58249;46.792;-71.248;2022-07-29T10:21:40;22.33;22.33;14.00
70566;PMS5003;58249;46.792;-71.248;2022-07-29T10:23:45;20.00;20.00;14.00
70566;PMS5003;58249;46.792;-71.248;2022-07-29T10:25:50;21.00;21.00;13.75
70566;PMS5003;58249;46.792;-71.248;2022-07-29T10:27:54;24.33;24.00;16.00
70566;PMS5003;58249;46.792;-71.248;2022-07-29T10:29:58;22.67;22.67;15.33
70566;PMS5003;58249;46.792;-71.248;2022-07-29T10:37:14;21.00;20.00;14.00
70566;PMS5003;58249;46.792;-71.248;2022-07-29T10:39:27;18.00;17.75;12.25
70566;PMS5003;58249;46.792;-71.248;2022-07-29T10:41:44;20.25;19.25;13.50
70566;PMS5003;58249;46.792;-71.248;2022-07-29T10:43:59;22.00;22.00;13.67
70566;PMS5003;58249;46.792;-71.248;2022-07-29T10:46:04;20.00;20.00;13.75
70566;PMS5003;58249;46.792;-71.248;2022-07-29T10:48:09;21.25;18.25;13.00
70566;PMS5003;58249;46.792;-71.248;2022-07-29T10:50:12;17.67;17.67;10.67
70566;PMS5003;58249;46.792;-71.248;2022-07-29T10:52:15;21.67;21.67;14.00
70566;PMS5003;58249;46.792;-71.248;2022-07-29T10:54:35;19.33;19.33;13.33
70566;PMS5003;58249;46.792;-71.248;2022-07-29T10:56:44;18.00;18.00;11.25
70566;PMS5003;58249;46.792;-71.248;2022-07-29T10:58:48;19.75;19.75;13.00
70566;PMS5003;58249;46.792;-71.248;2022-07-29T11:01:29;20.00;20.00;12.75
70566;PMS5003;58249;46.792;-71.248;2022-07-29T11:03:45;19.25;19.25;13.75
70566;PMS5003;58249;46.792;-71.248;2022-07-29T11:05:54;17.75;16.75;12.00
70566;PMS5003;58249;46.792;-71.248;2022-07-29T11:10:27;20.75;20.75;14.75
70566;PMS5003;58249;46.792;-71.248;2022-07-29T11:12:46;20.67;20.67;14.00
70566;PMS5003;58249;46.792;-71.248;2022-07-29T11:14:58;18.33;17.33;11.33
70566;PMS5003;58249;46.792;-71.248;2022-07-29T11:17:03;22.00;22.00;15.67
70566;PMS5003;58249;46.792;-71.248;2022-07-29T11:19:22;15.33;14.67;10.33
70566;PMS5003;58249;46.792;-71.248;2022-07-29T11:21:35;17.75;17.50;12.00
70566;PMS5003;58249;46.792;-71.248;2022-07-29T11:23:39;15.67;14.00;11.00
70566;PMS5003;58249;46.792;-71.248;2022-07-29T11:25:45;19.00;18.67;12.67
70566;PMS5003;58249;46.792;-71.248;2022-07-29T11:27:48;22.00;21.67;14.33
70566;PMS5003;58249;46.792;-71.248;2022-07-29T11:29:53;17.00;17.00;12.00
70566;PMS5003;58249;46.792;-71.248;2022-07-29T11:31:57;20.33;20.00;12.00
70566;PMS5003;58249;46.792;-71.248;2022-07-29T11:34:18;18.33;18.00;13.00
70566;PMS5003;58249;46.792;-71.248;2022-07-29T11:36:24;20.67;20.00;12.67